Forside
METAR-TAF:

METAR-TAF

Lufthavne :

Warsaw Municipal Airport

Warsaw, Indiana, USA

Breddekreds: 41-16-28N, længdekreds: 085-50-24W, højde: 259 m

Aktuelle vejr

Denne rapport blev lavet for 15 minutter siden, kl. 18:15 UTC
Vind 8 kt fra sydvest med vindstød på up til 14 kt
Temperatur 10°C
Fugtighed 46%
Tryk 1015 hPa
Sigt: 16.1 km
skyfri

METAR: KASW 231815Z AUTO 23008G14KT 10SM CLR 10/M01 A2997 RMK AO2

Tid: 13:30 (18:30 UTC)


TAF: fraværende

Vejrobservationer og prognoser fra mere end 4000 lufthavne (METAR og TAF).

De gule og røde prikker repræsenterer de meteorologiske stationer.

Flyt musen over at se navnet på stationen.

Så klik over at se vejr observationer og prognoser.

At skifte det kort: Klik på de grønne knapper med et sort kors for at zoome ind; på den grønne knap med en bindestreg for at zoome ud; eller på de grønne pile for tilstødende kort.


METAR-TAF: